createdAt,value
2019-04-28T00:02:50.763Z,4.23
2019-04-28T00:07:54.905Z,2.83
2019-04-28T00:12:58.804Z,3.00
2019-04-28T00:18:04.141Z,3.27
2019-04-28T00:23:19.080Z,2.53
2019-04-28T00:28:23.859Z,3.37
2019-04-28T00:33:28.435Z,4.40
2019-04-28T00:38:33.149Z,3.13
2019-04-28T00:43:37.106Z,2.90
2019-04-28T00:48:41.218Z,3.37
2019-04-28T00:53:45.826Z,3.40
2019-04-28T00:58:51.591Z,3.60
2019-04-28T01:03:56.938Z,3.67
2019-04-28T01:09:01.369Z,2.80
2019-04-28T01:14:07.318Z,3.67
2019-04-28T01:19:20.291Z,3.47
2019-04-28T01:24:24.707Z,3.10
2019-04-28T01:29:29.541Z,3.50
2019-04-28T01:34:33.600Z,4.40
2019-04-28T01:39:41.017Z,3.03
2019-04-28T01:44:44.631Z,2.97
2019-04-28T01:49:50.140Z,2.77
2019-04-28T01:54:54.306Z,3.03
2019-04-28T01:59:59.849Z,4.37
2019-04-28T02:05:05.255Z,3.60
2019-04-28T02:10:10.247Z,3.40
2019-04-28T02:15:14.403Z,3.20
2019-04-28T02:20:23.118Z,3.23
2019-04-28T02:25:27.640Z,3.63
2019-04-28T02:30:42.330Z,3.13
2019-04-28T02:35:37.553Z,2.67
2019-04-28T02:40:41.697Z,2.80
2019-04-28T02:45:45.770Z,3.50
2019-04-28T02:51:11.893Z,2.47
2019-04-28T02:56:15.893Z,3.17
2019-04-28T03:01:26.058Z,3.17
2019-04-28T03:06:26.144Z,2.80
2019-04-28T03:11:31.460Z,3.80
2019-04-28T03:16:36.257Z,3.53
2019-04-28T03:21:41.708Z,2.80
2019-04-28T03:26:54.280Z,2.77
2019-04-28T03:32:30.092Z,2.87
2019-04-28T03:37:17.900Z,3.07
2019-04-28T03:42:22.749Z,3.27
2019-04-28T03:47:27.031Z,3.17
2019-04-28T03:52:31.846Z,1.93
2019-04-28T03:57:35.956Z,3.93
2019-04-28T04:02:41.199Z,2.63
2019-04-28T04:07:45.457Z,2.53
2019-04-28T04:13:03.774Z,3.17
2019-04-28T04:18:15.525Z,2.90
2019-04-28T04:23:22.696Z,3.93
2019-04-28T04:28:26.571Z,3.10
2019-04-28T04:33:31.218Z,3.37
2019-04-28T04:38:35.321Z,3.70
2019-04-28T04:43:41.598Z,3.80
2019-04-28T04:48:45.741Z,3.07
2019-04-28T04:53:51.001Z,3.13
2019-04-28T04:58:56.328Z,3.50
2019-04-28T05:04:09.504Z,3.30
2019-04-28T05:09:13.483Z,3.83
2019-04-28T05:14:19.630Z,3.40
2019-04-28T05:19:23.734Z,3.00
2019-04-28T05:24:35.163Z,2.70
2019-04-28T05:29:39.764Z,3.37
2019-04-28T05:34:46.582Z,2.70
2019-04-28T05:39:52.635Z,2.97
2019-04-28T05:44:56.763Z,3.17
2019-04-28T05:50:22.780Z,3.10
2019-04-28T05:55:34.207Z,3.27
2019-04-28T06:00:49.937Z,3.00
2019-04-28T06:05:57.066Z,3.17
2019-04-28T06:11:02.342Z,2.50
2019-04-28T06:16:06.222Z,2.33
2019-04-28T06:21:10.139Z,2.30
2019-04-28T06:26:14.067Z,2.63
2019-04-28T06:31:18.000Z,2.90
2019-04-28T06:36:22.438Z,3.20
2019-04-28T06:41:27.321Z,2.87
2019-04-28T06:46:32.221Z,2.70
2019-04-28T06:51:37.194Z,3.57
2019-04-28T06:56:41.671Z,3.10
2019-04-28T07:01:46.212Z,3.00
2019-04-28T07:06:50.075Z,3.73
2019-04-28T07:11:56.241Z,5.93
2019-04-28T07:17:00.937Z,3.27
2019-04-28T07:22:10.159Z,2.70
2019-04-28T07:27:14.392Z,3.43
2019-04-28T07:32:18.456Z,3.33
2019-04-28T07:37:22.970Z,2.97
2019-04-28T07:42:27.323Z,4.80
2019-04-28T07:47:31.225Z,5.20
2019-04-28T07:52:41.615Z,4.80
2019-04-28T07:57:45.534Z,4.07
2019-04-28T08:02:50.126Z,4.53
2019-04-28T08:07:54.647Z,3.57
2019-04-28T08:12:59.056Z,3.13
2019-04-28T08:18:04.015Z,2.50
2019-04-28T08:23:08.563Z,3.37
2019-04-28T08:28:13.215Z,2.50
2019-04-28T08:34:01.278Z,3.20
2019-04-28T08:38:54.915Z,3.40
2019-04-28T08:43:59.234Z,3.00
2019-04-28T08:49:05.631Z,3.10
2019-04-28T08:54:10.630Z,2.73
2019-04-28T08:59:16.712Z,2.57
2019-04-28T09:04:21.621Z,3.00
2019-04-28T09:09:26.054Z,2.47
2019-04-28T09:14:30.536Z,2.30
2019-04-28T09:19:34.539Z,2.30
2019-04-28T09:24:38.494Z,1.80
2019-04-28T09:29:42.900Z,2.23
2019-04-28T09:34:47.414Z,1.83
2019-04-28T09:39:58.236Z,1.60
2019-04-28T09:45:07.071Z,1.70
2019-04-28T09:50:11.363Z,1.80
2019-04-28T09:55:15.869Z,1.80
2019-04-28T10:00:20.597Z,2.20
2019-04-28T10:05:24.716Z,3.03
2019-04-28T10:10:29.290Z,2.40
2019-04-28T10:15:33.961Z,2.23
2019-04-28T10:20:38.676Z,2.20
2019-04-28T10:25:43.583Z,2.37
2019-04-28T10:30:48.107Z,1.97
2019-04-28T10:35:52.862Z,1.97
2019-04-28T10:41:19.143Z,1.77
2019-04-28T10:46:24.022Z,1.60
2019-04-28T10:51:27.989Z,1.30
2019-04-28T10:56:32.113Z,1.70
2019-04-28T11:01:35.988Z,1.70
2019-04-28T11:06:40.564Z,1.80
2019-04-28T11:11:45.157Z,2.20
2019-04-28T11:16:49.106Z,1.40
2019-04-28T11:21:53.005Z,1.80
2019-04-28T11:26:57.474Z,1.43
2019-04-28T11:32:02.143Z,2.23
2019-04-28T11:37:07.274Z,2.60
2019-04-28T11:42:11.957Z,2.07
2019-04-28T11:47:19.038Z,1.40
2019-04-28T11:52:23.254Z,1.47
2019-04-28T11:57:27.239Z,1.00
2019-04-28T12:02:31.827Z,1.57
2019-04-28T12:07:36.560Z,2.33
2019-04-28T12:13:03.662Z,1.43
2019-04-28T12:18:32.942Z,1.43
2019-04-28T12:23:37.992Z,1.50
2019-04-28T12:28:52.084Z,1.20
2019-04-28T12:33:56.674Z,1.83
2019-04-28T12:39:01.578Z,2.20
2019-04-28T12:44:06.237Z,1.57
2019-04-28T12:49:25.314Z,1.90
2019-04-28T12:54:31.615Z,2.13
2019-04-28T12:59:42.013Z,1.57
2019-04-28T13:04:59.335Z,2.23
2019-04-28T13:10:04.723Z,1.90
2019-04-28T13:15:09.466Z,1.80
2019-04-28T13:20:16.094Z,2.00
2019-04-28T13:25:20.718Z,3.00
2019-04-28T13:30:25.246Z,2.00
2019-04-28T13:35:31.612Z,1.70
2019-04-28T13:40:38.384Z,1.77
2019-04-28T13:45:42.964Z,1.40
2019-04-28T13:50:49.134Z,1.50
2019-04-28T13:56:05.685Z,2.00
2019-04-28T14:01:42.010Z,2.10
2019-04-28T14:06:49.583Z,1.90
2019-04-28T14:11:54.155Z,2.33
2019-04-28T14:16:58.796Z,1.87
2019-04-28T14:22:03.414Z,1.70
2019-04-28T14:27:08.054Z,1.53
2019-04-28T14:32:12.567Z,1.60
2019-04-28T14:37:17.010Z,1.80
2019-04-28T14:42:21.878Z,2.93
2019-04-28T14:47:26.276Z,2.73
2019-04-28T14:52:30.809Z,2.30
2019-04-28T14:57:35.434Z,2.10
2019-04-28T15:02:49.157Z,2.17
2019-04-28T15:08:15.856Z,2.50
2019-04-28T15:13:21.626Z,2.30
2019-04-28T15:18:26.016Z,2.10
2019-04-28T15:23:31.707Z,1.63
2019-04-28T15:28:36.444Z,1.70
2019-04-28T15:33:41.131Z,1.67
2019-04-28T15:38:45.804Z,1.40
2019-04-28T15:43:50.403Z,1.60
2019-04-28T15:48:55.159Z,1.30
2019-04-28T15:54:03.475Z,1.03
2019-04-28T15:59:09.274Z,1.47
2019-04-28T16:04:13.759Z,1.17
2019-04-28T16:09:18.510Z,1.00
2019-04-28T16:14:23.192Z,0.80
2019-04-28T16:19:27.811Z,0.80
2019-04-28T16:24:32.881Z,0.70
2019-04-28T16:29:38.590Z,0.90
2019-04-28T16:34:43.237Z,0.97
2019-04-28T16:39:47.675Z,1.33
2019-04-28T16:44:52.109Z,0.83
2019-04-28T16:49:56.613Z,0.90
2019-04-28T16:55:23.726Z,0.90
2019-04-28T17:00:53.074Z,1.10
2019-04-28T17:05:57.656Z,1.10
2019-04-28T17:11:02.769Z,0.90
2019-04-28T17:16:07.440Z,1.53
2019-04-28T17:21:12.132Z,1.30
2019-04-28T17:26:16.668Z,1.30
2019-04-28T17:31:21.093Z,1.00
2019-04-28T17:36:26.016Z,1.07
2019-04-28T17:41:30.792Z,1.13
2019-04-28T17:46:35.521Z,1.20
2019-04-28T17:51:39.627Z,1.00
2019-04-28T17:56:43.655Z,1.20
2019-04-28T18:02:12.109Z,1.10
2019-04-28T18:07:21.954Z,1.30
2019-04-28T18:12:26.158Z,1.00
2019-04-28T18:18:01.077Z,1.23
2019-04-28T18:23:05.071Z,1.10
2019-04-28T18:28:09.535Z,1.30
2019-04-28T18:33:36.263Z,1.20
2019-04-28T18:38:49.481Z,1.40
2019-04-28T18:44:13.149Z,1.60
2019-04-28T18:49:18.023Z,1.53
2019-04-28T18:54:22.719Z,1.50
2019-04-28T18:59:27.955Z,1.37
2019-04-28T19:04:33.147Z,1.60
2019-04-28T19:09:59.973Z,1.50
2019-04-28T19:15:23.100Z,1.60
2019-04-28T19:20:28.337Z,1.90
2019-04-28T19:25:35.226Z,1.80
2019-04-28T19:30:41.957Z,1.80
2019-04-28T19:35:47.421Z,1.67
2019-04-28T19:40:54.833Z,2.43
2019-04-28T19:46:02.388Z,2.30
2019-04-28T19:51:07.191Z,3.00
2019-04-28T19:56:21.932Z,3.80
2019-04-28T20:01:28.920Z,3.00
2019-04-28T20:06:33.260Z,3.87
2019-04-28T20:11:40.873Z,2.50
2019-04-28T20:16:45.432Z,2.37
2019-04-28T20:21:50.403Z,2.20
2019-04-28T20:26:54.563Z,2.50
2019-04-28T20:31:59.151Z,2.33
2019-04-28T20:37:10.637Z,2.40
2019-04-28T20:42:33.173Z,2.00
2019-04-28T20:47:37.834Z,1.97
2019-04-28T20:52:43.028Z,2.30
2019-04-28T20:57:49.579Z,1.93
2019-04-28T21:02:56.669Z,2.47
2019-04-28T21:08:00.809Z,2.03
2019-04-28T21:13:05.292Z,1.73
2019-04-28T21:18:10.148Z,1.80
2019-04-28T21:23:19.748Z,1.70
2019-04-28T21:28:25.031Z,1.70
2019-04-28T21:33:29.561Z,3.13
2019-04-28T21:38:34.081Z,1.90
2019-04-28T21:43:44.419Z,2.00
2019-04-28T21:48:51.163Z,2.07
2019-04-28T21:53:55.632Z,2.10
2019-04-28T21:58:59.747Z,2.00
2019-04-28T22:04:04.086Z,1.90
2019-04-28T22:09:09.466Z,2.00
2019-04-28T22:14:13.486Z,1.97
2019-04-28T22:19:18.117Z,1.83
2019-04-28T22:24:36.974Z,2.03
2019-04-28T22:29:46.232Z,2.50
2019-04-28T22:34:52.318Z,2.13
2019-04-28T22:39:56.414Z,1.90
2019-04-28T22:45:00.778Z,2.03
2019-04-28T22:50:07.176Z,1.87
2019-04-28T22:55:16.703Z,1.60
2019-04-28T23:00:57.311Z,1.63
2019-04-28T23:06:01.982Z,2.10
2019-04-28T23:11:06.340Z,1.50
2019-04-28T23:16:10.851Z,2.00
2019-04-28T23:21:40.424Z,1.80
2019-04-28T23:26:45.741Z,1.50
2019-04-28T23:31:51.813Z,2.10
2019-04-28T23:36:58.823Z,2.33
2019-04-28T23:42:15.884Z,1.90
2019-04-28T23:47:20.785Z,2.00
2019-04-28T23:52:31.290Z,1.50
2019-04-28T23:57:35.784Z,1.27
